Time;durP1;ratioP1;P1;durP2;ratioP2;P2;SDS_P1;SDS_P2;PMS_P1;PMS_P2;Temp;Humidity;BMP_temperature;BMP_pressure;BME280_temperature;BME280_humidity;BME280_pressure;Samples;Min_cycle;Max_cycle;Signal;HPM_P1;HPM_P2
2022/04/25 00:01:39;;;;;;;5.47;2.92;;;9.40;99.90;;;;;;5060333;28;20047;-78
2022/04/25 00:04:05;;;;;;;3.88;3.47;;;9.30;99.90;;;;;;5060615;28;20608;-79
2022/04/25 00:06:31;;;;;;;10.10;3.47;;;9.30;99.90;;;;;;5060910;28;20044;-78
2022/04/25 00:08:57;;;;;;;4.88;2.60;;;9.30;99.90;;;;;;5043446;28;20453;-78
2022/04/25 00:11:23;;;;;;;8.18;4.13;;;9.30;99.90;;;;;;5060584;28;20080;-78
2022/04/25 00:13:48;;;;;;;6.57;2.83;;;9.30;99.90;;;;;;5060670;28;20055;-78
2022/04/25 00:16:14;;;;;;;4.03;2.67;;;9.30;99.90;;;;;;5060535;28;20372;-78
2022/04/25 00:18:40;;;;;;;9.70;2.95;;;9.30;99.90;;;;;;5060067;28;20044;-78
2022/04/25 00:21:06;;;;;;;2.53;2.08;;;9.30;99.90;;;;;;5042652;28;20087;-79
2022/04/25 00:23:32;;;;;;;9.45;3.95;;;9.30;99.90;;;;;;5042933;28;20052;-78
2022/04/25 00:25:57;;;;;;;7.53;2.92;;;9.30;99.90;;;;;;5045779;28;20048;-78
2022/04/25 00:28:23;;;;;;;10.80;3.83;;;9.40;99.90;;;;;;5064617;28;20051;-78
2022/04/25 00:30:49;;;;;;;4.72;2.40;;;9.30;99.90;;;;;;5064555;28;20482;-78
2022/04/25 00:33:15;;;;;;;2.95;2.15;;;9.30;99.90;;;;;;5063012;28;20153;-78
2022/04/25 00:35:42;;;;;;;7.28;2.85;;;9.30;99.90;;;;;;5046585;28;20056;-79
2022/04/25 00:38:08;;;;;;;6.93;3.33;;;9.40;99.90;;;;;;5064205;28;20497;-78
2022/04/25 00:40:34;;;;;;;9.23;3.15;;;9.40;99.90;;;;;;5064006;28;20161;-78
2022/04/25 00:42:59;;;;;;;3.90;3.38;;;9.40;99.90;;;;;;5046970;28;20068;-78
2022/04/25 00:45:25;;;;;;;4.93;2.60;;;9.40;99.90;;;;;;5060093;28;20037;-78
2022/04/25 00:47:51;;;;;;;6.10;2.08;;;9.40;99.90;;;;;;5038039;28;20048;-78
2022/04/25 00:50:16;;;;;;;1.98;1.83;;;9.40;99.90;;;;;;5029932;28;20068;-78
2022/04/25 00:52:42;;;;;;;10.82;2.70;;;9.40;99.90;;;;;;5045872;28;20059;-78
2022/04/25 00:55:10;;;;;;;4.70;2.40;;;9.40;99.90;;;;;;5046172;28;20041;-79
2022/04/25 00:57:36;;;;;;;3.72;2.58;;;9.40;99.90;;;;;;5046530;28;20102;-78
2022/04/25 01:00:07;;;;;;;6.82;2.45;;;9.40;99.90;;;;;;5063457;28;20049;-79
2022/04/25 01:02:33;;;;;;;3.17;2.33;;;9.40;99.90;;;;;;5063026;28;20450;-78
2022/04/25 01:04:59;;;;;;;3.92;2.53;;;9.40;99.90;;;;;;5046075;28;20044;-78
2022/04/25 01:07:25;;;;;;;4.72;3.05;;;9.40;99.90;;;;;;5063785;28;20140;-78
2022/04/25 01:09:51;;;;;;;11.60;2.97;;;9.40;99.90;;;;;;5045665;28;20094;-78
2022/04/25 01:12:16;;;;;;;1.45;1.35;;;9.30;99.90;;;;;;5062917;28;20042;-78
2022/04/25 01:14:42;;;;;;;3.47;2.10;;;9.30;99.90;;;;;;5045850;28;20044;-78
2022/04/25 01:17:08;;;;;;;6.78;2.28;;;9.30;99.90;;;;;;5062627;28;20056;-78
2022/04/25 01:19:34;;;;;;;4.93;2.50;;;9.30;99.90;;;;;;5045452;28;20067;-78
2022/04/25 01:22:06;;;;;;;4.50;2.33;;;9.30;99.90;;;;;;5064216;28;20044;-78
2022/04/25 01:27:17;;;;;;;12.52;2.40;;;9.30;99.90;;;;;;5045104;28;20756;-78
2022/04/25 01:29:52;;;;;;;2.63;1.98;;;9.30;99.90;;;;;;5063693;28;20040;-78
2022/04/25 01:32:19;;;;;;;3.88;2.60;;;9.20;99.90;;;;;;5044314;28;20062;-78
2022/04/25 01:34:45;;;;;;;5.43;2.58;;;9.20;99.90;;;;;;5063381;28;20075;-78
2022/04/25 01:37:12;;;;;;;3.28;2.38;;;9.20;99.90;;;;;;5062586;28;20090;-78
2022/04/25 01:39:49;;;;;;;6.70;2.67;;;9.20;99.90;;;;;;5045290;28;20051;-78
2022/04/25 01:42:16;;;;;;;5.80;3.40;;;9.20;99.90;;;;;;5044907;28;20067;-79
2022/04/25 01:44:42;;;;;;;3.78;3.00;;;9.20;99.90;;;;;;5063181;28;20128;-78
2022/04/25 01:47:08;;;;;;;4.80;3.38;;;9.20;99.90;;;;;;5044098;28;20120;-78
2022/04/25 01:49:35;;;;;;;3.40;2.58;;;9.20;99.90;;;;;;5025530;28;20053;-78
2022/04/25 01:52:24;;;;;;;5.20;3.38;;;9.20;99.90;;;;;;5025511;28;20055;-77
2022/04/25 01:54:50;;;;;;;6.93;3.40;;;9.20;99.90;;;;;;5062336;28;20152;-78
2022/04/25 01:57:16;;;;;;;5.53;2.75;;;9.20;99.90;;;;;;5062850;28;20097;-78
2022/04/25 01:59:43;;;;;;;9.77;3.00;;;9.20;99.90;;;;;;5063017;28;20422;-78
2022/04/25 02:02:11;;;;;;;8.32;3.35;;;9.20;99.90;;;;;;5061939;28;20150;-79
2022/04/25 02:04:36;;;;;;;4.75;3.30;;;9.20;99.90;;;;;;5044471;28;20041;-78
2022/04/25 02:07:02;;;;;;;3.50;2.90;;;9.10;99.90;;;;;;5044248;28;20048;-78
2022/04/25 02:09:27;;;;;;;3.70;3.10;;;9.10;99.90;;;;;;5063349;28;20741;-78
2022/04/25 02:11:53;;;;;;;5.80;3.25;;;9.10;99.90;;;;;;5028515;28;20058;-78
2022/04/25 02:14:18;;;;;;;12.35;3.58;;;9.10;99.90;;;;;;5044156;28;20052;-79
2022/04/25 02:16:45;;;;;;;14.68;3.47;;;9.00;99.90;;;;;;5061456;28;20148;-78
2022/04/25 02:19:10;;;;;;;4.70;3.30;;;9.00;99.90;;;;;;5044804;28;20037;-78
2022/04/25 02:21:36;;;;;;;4.55;3.25;;;9.00;99.90;;;;;;5062287;28;20051;-78
2022/04/25 02:24:02;;;;;;;5.13;3.15;;;9.00;99.90;;;;;;5044534;28;20518;-79
2022/04/25 02:26:28;;;;;;;8.43;3.70;;;9.00;99.90;;;;;;5044563;28;20123;-78
2022/04/25 02:28:54;;;;;;;14.18;4.95;;;8.90;99.90;;;;;;5062167;28;20581;-78
2022/04/25 02:31:20;;;;;;;3.58;3.17;;;8.90;99.90;;;;;;5061089;28;20059;-78
2022/04/25 02:33:46;;;;;;;3.22;2.75;;;8.90;99.90;;;;;;5061958;28;20051;-78
2022/04/25 02:36:13;;;;;;;4.78;3.83;;;8.90;99.90;;;;;;5061987;28;20048;-78
2022/04/25 02:38:39;;;;;;;13.57;3.42;;;8.90;99.90;;;;;;5062366;28;20041;-79
2022/04/25 02:41:05;;;;;;;3.65;2.75;;;8.80;99.90;;;;;;5044209;28;20048;-78
2022/04/25 02:43:34;;;;;;;9.95;4.15;;;8.90;99.90;;;;;;5044301;28;20040;-76
2022/04/25 02:46:05;;;;;;;5.60;2.58;;;8.80;99.90;;;;;;5035895;28;20076;-78
2022/04/25 02:48:31;;;;;;;4.63;4.13;;;8.80;99.90;;;;;;5006788;28;20095;-76
2022/04/25 02:50:57;;;;;;;3.58;2.65;;;8.80;99.90;;;;;;5024649;28;20044;-78
2022/04/25 02:53:24;;;;;;;5.22;3.88;;;8.80;99.90;;;;;;5041449;28;20091;-78
2022/04/25 02:55:51;;;;;;;4.15;2.95;;;8.70;99.90;;;;;;5054744;28;20407;-78
2022/04/25 02:58:17;;;;;;;9.70;3.05;;;8.70;99.90;;;;;;5061472;28;20116;-78
2022/04/25 03:00:46;;;;;;;3.38;3.08;;;8.70;99.90;;;;;;5043735;28;20049;-78
2022/04/25 03:03:12;;;;;;;2.78;2.58;;;8.70;99.90;;;;;;5060631;28;20045;-78
2022/04/25 03:05:39;;;;;;;6.70;3.42;;;8.70;99.90;;;;;;5061828;28;20124;-78
2022/04/25 03:08:05;;;;;;;3.15;2.85;;;8.60;99.90;;;;;;5061460;28;20045;-78
2022/04/25 03:10:30;;;;;;;3.55;2.90;;;8.60;99.90;;;;;;5061899;28;20040;-77
2022/04/25 03:12:56;;;;;;;9.75;3.90;;;8.60;99.90;;;;;;5061638;28;20052;-78
2022/04/25 03:15:22;;;;;;;3.67;3.35;;;8.60;99.90;;;;;;5043328;28;20094;-78
2022/04/25 03:17:47;;;;;;;4.65;4.05;;;8.60;99.90;;;;;;5042743;28;20041;-78
2022/04/25 03:20:14;;;;;;;6.88;3.97;;;8.60;99.90;;;;;;5026482;28;20044;-78
2022/04/25 03:22:39;;;;;;;6.38;4.15;;;8.60;99.90;;;;;;5061771;28;20109;-78
2022/04/25 03:25:06;;;;;;;3.35;3.05;;;8.50;99.90;;;;;;5043439;28;20056;-77
2022/04/25 03:27:32;;;;;;;3.42;3.05;;;8.60;99.90;;;;;;5061086;28;20052;-77
2022/04/25 03:29:57;;;;;;;2.70;2.50;;;8.50;99.90;;;;;;5061925;28;20282;-76
2022/04/25 03:32:23;;;;;;;6.38;3.95;;;8.50;99.90;;;;;;5060408;28;20059;-77
2022/04/25 03:34:48;;;;;;;3.80;3.00;;;8.50;99.90;;;;;;5061201;28;20538;-77
2022/04/25 03:37:14;;;;;;;13.18;3.70;;;8.50;99.90;;;;;;5061178;28;20048;-76
2022/04/25 03:39:39;;;;;;;6.72;3.40;;;8.50;99.90;;;;;;5061299;28;20064;-77
2022/04/25 03:42:05;;;;;;;5.30;2.78;;;8.50;99.90;;;;;;5061119;28;20506;-77
2022/04/25 03:44:31;;;;;;;7.85;3.20;;;8.40;99.90;;;;;;5061757;28;20040;-76
2022/04/25 03:46:56;;;;;;;4.30;3.40;;;8.40;99.90;;;;;;5044196;28;20041;-77
2022/04/25 03:49:21;;;;;;;4.47;3.17;;;8.40;99.90;;;;;;5023280;28;20060;-76
2022/04/25 03:51:47;;;;;;;3.95;2.83;;;8.40;99.90;;;;;;5059649;28;20041;-76
2022/04/25 03:57:09;;;;;;;2.72;2.53;;;8.50;99.90;;;;;;5060834;28;20037;-77
2022/04/25 03:57:10;;;;;;;3.40;3.17;;;8.50;99.90;;;;;;5043469;28;20044;-76
2022/04/25 03:59:36;;;;;;;4.25;3.10;;;8.50;99.90;;;;;;5063230;28;20048;-76
2022/04/25 04:02:02;;;;;;;4.05;3.10;;;8.50;99.90;;;;;;5064217;28;20037;-76
2022/04/25 04:04:27;;;;;;;4.63;3.60;;;8.50;99.90;;;;;;5065051;28;20494;-76
2022/04/25 04:06:53;;;;;;;8.38;3.30;;;8.60;99.90;;;;;;5064927;28;20045;-77
2022/04/25 04:12:03;;;;;;;6.13;4.60;;;8.60;99.90;;;;;;5046949;28;20056;-77
2022/04/25 04:14:28;;;;;;;2.53;2.33;;;8.60;99.90;;;;;;5065235;28;20048;-77
2022/04/25 04:16:54;;;;;;;3.22;2.92;;;8.60;99.90;;;;;;5046333;28;20506;-77
2022/04/25 04:19:20;;;;;;;3.03;2.47;;;8.60;99.90;;;;;;5046579;28;20055;-77
2022/04/25 04:21:46;;;;;;;13.27;2.88;;;8.60;99.90;;;;;;5064713;28;20658;-77
2022/04/25 04:24:11;;;;;;;3.20;3.00;;;8.60;99.90;;;;;;5063913;28;20094;-76
2022/04/25 04:26:37;;;;;;;4.45;2.38;;;8.70;99.90;;;;;;5030225;28;20086;-77
2022/04/25 04:29:02;;;;;;;8.68;4.18;;;8.70;99.90;;;;;;5046409;28;20040;-76
2022/04/25 04:31:28;;;;;;;3.38;2.38;;;8.70;99.90;;;;;;5064143;28;20426;-77
2022/04/25 04:33:53;;;;;;;5.65;3.22;;;8.70;99.90;;;;;;5046996;28;20052;-77
2022/04/25 04:36:19;;;;;;;4.18;3.15;;;8.70;99.90;;;;;;5030195;28;20044;-77
2022/04/25 04:38:45;;;;;;;7.07;3.53;;;8.70;99.90;;;;;;5046479;28;20044;-77
2022/04/25 04:41:11;;;;;;;6.47;2.95;;;8.70;99.90;;;;;;5064244;28;20454;-77
2022/04/25 04:43:37;;;;;;;3.05;2.55;;;8.70;99.90;;;;;;5064472;28;20040;-77
2022/04/25 04:46:03;;;;;;;3.67;2.28;;;8.70;99.90;;;;;;5061076;28;20339;-77
2022/04/25 04:48:28;;;;;;;3.90;2.80;;;8.70;99.90;;;;;;5063355;28;20051;-77
2022/04/25 04:50:55;;;;;;;8.10;4.03;;;8.70;99.90;;;;;;5044924;28;20045;-77
2022/04/25 04:53:22;;;;;;;6.05;2.03;;;8.70;99.90;;;;;;5028993;28;20080;-76
2022/04/25 04:55:49;;;;;;;4.72;3.40;;;8.70;99.90;;;;;;5046003;28;20048;-77
2022/04/25 04:58:14;;;;;;;5.97;2.78;;;8.70;99.90;;;;;;5063379;28;20036;-77
2022/04/25 05:00:44;;;;;;;2.70;1.95;;;8.70;99.90;;;;;;5029331;28;20059;-77
2022/04/25 05:03:11;;;;;;;3.97;2.85;;;8.70;99.90;;;;;;5045817;28;20040;-77
2022/04/25 05:05:36;;;;;;;11.35;3.88;;;8.70;99.90;;;;;;5045757;28;20247;-77
2022/04/25 05:08:02;;;;;;;3.67;3.05;;;8.70;99.90;;;;;;5045064;28;20044;-77
2022/04/25 05:10:27;;;;;;;9.55;3.83;;;8.70;99.90;;;;;;5045483;28;20600;-77
2022/04/25 05:12:54;;;;;;;4.20;3.00;;;8.70;99.90;;;;;;5045161;28;20395;-79
2022/04/25 05:15:20;;;;;;;5.10;3.35;;;8.70;99.90;;;;;;5039349;28;20089;-79
2022/04/25 05:17:50;;;;;;;2.97;2.65;;;8.70;99.90;;;;;;5053360;28;20252;-84
2022/04/25 05:20:17;;;;;;;9.45;2.63;;;8.70;99.90;;;;;;5082423;28;20362;-81
2022/04/25 05:22:45;;;;;;;3.22;2.80;;;8.70;99.90;;;;;;5057818;28;20041;-78
2022/04/25 05:25:14;;;;;;;4.97;2.97;;;8.70;99.90;;;;;;5043580;28;20032;-78
2022/04/25 05:27:40;;;;;;;3.28;2.90;;;8.70;99.90;;;;;;5062265;28;20055;-78
2022/04/25 05:30:06;;;;;;;4.47;2.75;;;8.70;99.90;;;;;;5043725;28;20127;-78
2022/04/25 05:32:42;;;;;;;3.42;3.13;;;8.70;99.90;;;;;;5061753;28;20072;-78
2022/04/25 05:35:08;;;;;;;4.05;3.40;;;8.70;99.90;;;;;;5061931;28;20044;-79
2022/04/25 05:37:33;;;;;;;5.90;3.40;;;8.70;99.90;;;;;;5043650;28;20093;-79
2022/04/25 05:39:59;;;;;;;10.05;2.92;;;8.70;99.90;;;;;;5062494;28;20301;-78
2022/04/25 05:42:24;;;;;;;3.90;2.95;;;8.70;99.90;;;;;;5027540;28;20052;-79
2022/04/25 05:44:50;;;;;;;5.60;2.70;;;8.70;99.90;;;;;;5061857;28;20488;-79
2022/04/25 05:47:16;;;;;;;5.15;3.15;;;8.70;99.90;;;;;;5060576;28;20123;-79
2022/04/25 05:52:25;;;;;;;4.97;3.58;;;8.70;99.90;;;;;;5043836;28;20053;-78
2022/04/25 05:54:51;;;;;;;5.20;3.72;;;8.70;99.90;;;;;;5043503;28;20048;-79
2022/04/25 05:57:16;;;;;;;8.73;2.97;;;8.70;99.90;;;;;;5061564;28;20093;-79
2022/04/25 05:59:42;;;;;;;3.38;2.80;;;8.70;99.90;;;;;;5061744;28;20145;-78
2022/04/25 06:02:07;;;;;;;5.22;3.05;;;8.70;99.90;;;;;;5042656;28;20048;-78
2022/04/25 06:04:33;;;;;;;5.47;3.25;;;8.70;99.90;;;;;;5061599;28;20041;-78
2022/04/25 06:06:59;;;;;;;4.68;3.25;;;8.80;99.90;;;;;;5061995;28;20049;-79
2022/04/25 06:09:26;;;;;;;6.93;2.72;;;8.80;99.90;;;;;;5042773;28;20044;-78
2022/04/25 06:11:52;;;;;;;3.95;3.60;;;8.80;99.90;;;;;;5061585;28;20197;-78
2022/04/25 06:14:18;;;;;;;2.72;2.55;;;8.80;99.90;;;;;;5042826;28;20061;-78
2022/04/25 06:16:44;;;;;;;8.02;3.67;;;8.80;99.90;;;;;;5060026;28;20320;-78
2022/04/25 06:19:10;;;;;;;2.75;2.55;;;8.90;99.90;;;;;;5061193;28;20033;-77
2022/04/25 06:21:35;;;;;;;3.67;2.67;;;8.90;99.90;;;;;;5061472;28;20102;-78
2022/04/25 06:24:01;;;;;;;6.05;3.58;;;8.90;99.90;;;;;;5060822;28;20498;-79
2022/04/25 06:26:29;;;;;;;3.70;3.05;;;9.00;99.90;;;;;;5026997;28;20483;-78
2022/04/25 06:28:55;;;;;;;8.05;2.78;;;9.00;99.90;;;;;;5060598;28;20036;-78
2022/04/25 06:31:22;;;;;;;2.80;2.60;;;9.00;99.90;;;;;;5059758;28;20434;-79
2022/04/25 06:33:48;;;;;;;4.97;3.50;;;9.00;99.90;;;;;;5043256;28;20482;-78
2022/04/25 06:36:13;;;;;;;6.35;2.95;;;9.00;99.90;;;;;;5042642;28;20120;-79
2022/04/25 06:38:39;;;;;;;4.40;2.47;;;9.00;99.90;;;;;;5061410;28;20354;-79
2022/04/25 06:41:04;;;;;;;3.00;2.53;;;9.00;99.90;;;;;;5060196;28;20044;-78
2022/04/25 06:43:31;;;;;;;3.58;3.33;;;9.00;99.90;;;;;;5042899;28;20094;-79
2022/04/25 06:45:57;;;;;;;4.55;2.70;;;9.00;99.90;;;;;;5042422;28;20137;-78
2022/04/25 06:48:23;;;;;;;3.13;2.83;;;9.00;99.90;;;;;;5060489;28;20044;-78
2022/04/25 06:50:48;;;;;;;3.47;3.03;;;9.00;99.90;;;;;;5060765;28;20513;-78
2022/04/25 06:53:14;;;;;;;5.47;4.03;;;9.10;99.90;;;;;;5060618;28;20079;-79
2022/04/25 06:55:40;;;;;;;7.63;3.00;;;9.00;99.90;;;;;;5060321;28;20194;-79
2022/04/25 06:58:06;;;;;;;4.32;2.88;;;9.00;99.90;;;;;;5042160;28;20048;-78
2022/04/25 07:00:32;;;;;;;3.80;2.60;;;9.10;99.90;;;;;;5041494;28;20048;-78
2022/04/25 07:02:59;;;;;;;4.35;3.22;;;9.00;99.90;;;;;;5042639;28;20726;-79
2022/04/25 07:05:25;;;;;;;8.85;2.47;;;9.10;99.90;;;;;;5060976;28;20050;-80
2022/04/25 07:07:51;;;;;;;5.05;3.67;;;9.10;99.90;;;;;;5043378;28;20602;-79
2022/04/25 07:10:17;;;;;;;4.18;2.42;;;9.10;99.90;;;;;;5042172;28;20049;-81
2022/04/25 07:12:42;;;;;;;2.70;2.50;;;9.10;99.90;;;;;;5043392;28;20059;-80
2022/04/25 07:15:08;;;;;;;4.63;3.65;;;9.20;99.90;;;;;;5061110;28;20052;-79
2022/04/25 07:17:34;;;;;;;2.55;2.35;;;9.20;99.90;;;;;;5042746;28;20054;-79
2022/04/25 07:19:59;;;;;;;2.55;2.35;;;9.20;99.90;;;;;;5061524;28;20192;-79
2022/04/25 07:30:40;;;;;;;7.68;1.70;;;9.30;99.90;;;;;;5039987;28;20079;-90
2022/04/25 07:33:11;;;;;;;2.38;2.17;;;9.40;99.90;;;;;;5053325;28;20044;-94
2022/04/25 07:35:39;;;;;;;3.33;2.55;;;9.40;99.90;;;;;;5042610;28;20033;-78
2022/04/25 07:38:05;;;;;;;4.03;2.90;;;9.40;99.90;;;;;;5042752;28;20048;-77
2022/04/25 07:40:31;;;;;;;5.15;3.13;;;9.40;99.90;;;;;;5054721;28;20243;-78
2022/04/25 07:42:56;;;;;;;3.60;1.95;;;9.50;99.90;;;;;;5057147;28;20422;-78
2022/04/25 07:45:22;;;;;;;3.70;2.25;;;9.40;99.90;;;;;;5057871;28;20543;-78
2022/04/25 07:47:48;;;;;;;4.90;2.63;;;9.50;99.90;;;;;;5056164;28;20222;-78
2022/04/25 07:50:15;;;;;;;3.70;2.92;;;9.50;99.90;;;;;;5036932;28;20409;-78
2022/04/25 07:52:41;;;;;;;4.78;3.65;;;9.50;99.90;;;;;;5058813;28;20506;-78
2022/04/25 07:55:07;;;;;;;2.83;2.58;;;9.60;99.90;;;;;;5053253;28;20045;-78
2022/04/25 07:57:33;;;;;;;3.08;2.78;;;9.60;99.90;;;;;;5033931;28;20051;-78
2022/04/25 07:59:59;;;;;;;6.20;3.15;;;9.70;99.90;;;;;;5060230;28;20262;-78
2022/04/25 08:02:24;;;;;;;8.35;2.33;;;9.70;99.90;;;;;;5040716;28;20131;-78
2022/04/25 08:04:50;;;;;;;3.90;2.75;;;9.70;99.90;;;;;;5041829;28;20048;-78
2022/04/25 08:07:16;;;;;;;6.95;3.33;;;9.70;99.90;;;;;;5059383;28;20740;-78
2022/04/25 08:09:42;;;;;;;2.50;2.17;;;9.70;99.90;;;;;;5042355;28;20143;-78
2022/04/25 08:17:59;;;;;;;9.45;2.08;;;9.80;99.90;;;;;;5057146;28;20041;-91
2022/04/25 08:20:30;;;;;;;3.97;3.33;;;9.80;99.90;;;;;;5060960;28;20380;-86
2022/04/25 08:22:57;;;;;;;1.90;1.80;;;9.90;99.90;;;;;;5061168;28;20282;-78
2022/04/25 08:25:22;;;;;;;7.47;3.03;;;9.90;99.90;;;;;;5060873;28;20032;-78
2022/04/25 08:27:48;;;;;;;4.78;3.58;;;10.00;99.90;;;;;;5059895;28;20045;-79
2022/04/25 08:30:14;;;;;;;4.05;2.97;;;10.10;99.90;;;;;;5059194;28;20036;-79
2022/04/25 08:32:40;;;;;;;2.08;1.90;;;10.20;99.90;;;;;;5061380;28;20055;-79
2022/04/25 08:35:06;;;;;;;3.03;2.80;;;10.20;99.90;;;;;;5061072;28;20037;-79
2022/04/25 08:37:32;;;;;;;4.95;3.05;;;10.30;99.90;;;;;;5060618;28;20143;-80
2022/04/25 08:39:58;;;;;;;3.17;2.95;;;10.20;99.90;;;;;;5061120;28;20139;-78
2022/04/25 08:42:24;;;;;;;3.20;2.80;;;10.30;99.90;;;;;;5060095;28;20576;-78
2022/04/25 08:44:52;;;;;;;2.42;2.05;;;10.30;99.90;;;;;;5059324;28;20083;-79
2022/04/25 08:47:18;;;;;;;3.20;2.05;;;10.30;99.90;;;;;;5040521;28;20708;-80
2022/04/25 08:49:44;;;;;;;2.55;2.15;;;10.30;99.90;;;;;;5059999;28;20044;-79
2022/04/25 08:52:10;;;;;;;2.88;2.15;;;10.30;99.90;;;;;;5062842;28;20490;-79
2022/04/25 08:54:36;;;;;;;2.85;2.25;;;10.30;99.90;;;;;;5042732;28;20044;-79
2022/04/25 08:57:03;;;;;;;2.72;2.50;;;10.30;99.90;;;;;;5061810;28;20044;-79
2022/04/25 08:59:31;;;;;;;4.95;3.90;;;10.30;99.90;;;;;;5063530;28;20036;-79
2022/04/25 09:01:57;;;;;;;2.10;1.98;;;10.30;99.90;;;;;;5046173;28;20209;-79
2022/04/25 09:04:23;;;;;;;2.35;1.92;;;10.30;99.90;;;;;;5044300;28;20043;-79
2022/04/25 09:06:51;;;;;;;1.90;1.80;;;10.40;99.90;;;;;;5060415;28;20044;-79
2022/04/25 09:09:19;;;;;;;2.70;2.10;;;10.50;99.90;;;;;;5044172;28;20048;-79
2022/04/25 09:14:31;;;;;;;2.90;2.70;;;10.60;99.90;;;;;;5028983;28;20055;-79
2022/04/25 09:16:56;;;;;;;2.42;2.28;;;10.70;99.90;;;;;;5062936;28;20052;-79
2022/04/25 09:19:23;;;;;;;1.88;1.70;;;10.80;99.90;;;;;;5045073;28;20460;-80
2022/04/25 09:21:48;;;;;;;2.53;2.33;;;10.80;99.90;;;;;;5045144;28;20056;-81
2022/04/25 09:24:25;;;;;;;1.92;1.80;;;10.80;99.90;;;;;;5062216;28;20047;-80
2022/04/25 09:27:07;;;;;;;2.03;1.77;;;10.90;99.90;;;;;;5043169;28;20100;-80
2022/04/25 09:29:33;;;;;;;4.88;2.72;;;11.00;99.90;;;;;;5043220;28;20037;-78
2022/04/25 09:31:59;;;;;;;2.28;1.70;;;11.10;99.90;;;;;;5057566;28;20036;-79
2022/04/25 09:37:09;;;;;;;2.03;1.83;;;11.20;99.90;;;;;;5062870;28;20414;-80
2022/04/25 09:39:36;;;;;;;2.13;1.92;;;11.20;99.90;;;;;;5063698;28;20044;-78
2022/04/25 09:42:01;;;;;;;2.28;1.75;;;11.30;99.90;;;;;;5063281;28;20044;-78
2022/04/25 09:44:30;;;;;;;1.60;1.48;;;11.30;99.90;;;;;;5063545;28;20067;-78
2022/04/25 09:46:56;;;;;;;1.02;1.00;;;11.30;99.90;;;;;;5036792;28;20076;-78
2022/04/25 09:49:22;;;;;;;4.63;1.65;;;11.30;99.90;;;;;;5061801;28;20068;-78
2022/04/25 09:52:01;;;;;;;5.22;2.50;;;11.40;99.90;;;;;;5063182;28;20059;-78
2022/04/25 09:54:27;;;;;;;2.22;1.75;;;11.40;99.90;;;;;;5029178;28;20044;-78
2022/04/25 09:56:53;;;;;;;3.42;2.60;;;11.40;99.90;;;;;;5040279;28;20556;-81
2022/04/25 09:59:21;;;;;;;1.63;1.52;;;11.40;99.90;;;;;;5061673;28;20791;-79
2022/04/25 10:02:04;;;;;;;1.85;1.75;;;11.40;99.90;;;;;;5061931;28;20041;-80
2022/04/25 10:04:37;;;;;;;1.63;1.52;;;11.40;99.90;;;;;;5043019;28;20051;-80
2022/04/25 10:07:05;;;;;;;1.67;1.58;;;11.40;99.90;;;;;;5043268;28;20487;-79
2022/04/25 10:09:33;;;;;;;3.80;1.90;;;11.40;99.90;;;;;;5062538;28;20044;-79
2022/04/25 10:12:01;;;;;;;2.20;1.67;;;11.50;99.90;;;;;;5054236;28;20053;-79
2022/04/25 10:14:27;;;;;;;3.92;2.28;;;11.50;99.90;;;;;;5038669;28;20052;-79
2022/04/25 10:16:56;;;;;;;1.27;1.20;;;11.40;99.90;;;;;;5052673;28;20052;-80
2022/04/25 10:19:23;;;;;;;3.67;1.50;;;11.40;99.90;;;;;;5031843;28;20082;-80
2022/04/25 10:21:51;;;;;;;3.45;1.73;;;11.40;99.90;;;;;;5053809;28;20044;-80
2022/04/25 10:24:18;;;;;;;2.10;1.88;;;11.40;99.90;;;;;;5061994;28;20119;-80
2022/04/25 10:26:44;;;;;;;2.90;2.55;;;11.40;99.90;;;;;;5062100;28;20153;-79
2022/04/25 10:29:13;;;;;;;1.90;1.75;;;11.30;99.90;;;;;;5062014;28;20079;-80
2022/04/25 10:31:41;;;;;;;2.33;2.08;;;11.30;99.90;;;;;;5038497;28;20036;-80
2022/04/25 10:34:14;;;;;;;2.15;2.00;;;11.40;99.90;;;;;;5049317;28;20072;-80
2022/04/25 10:36:39;;;;;;;5.82;1.90;;;11.40;99.90;;;;;;5055622;28;20452;-81
2022/04/25 10:39:15;;;;;;;1.98;1.70;;;11.40;99.90;;;;;;5041745;28;20084;-81
2022/04/25 10:44:29;;;;;;;1.60;1.50;;;11.40;99.90;;;;;;5038337;28;20051;-80
2022/04/25 10:47:04;;;;;;;5.45;2.17;;;11.50;99.90;;;;;;5035928;28;20049;-78
2022/04/25 10:49:42;;;;;;;2.47;2.13;;;11.50;99.90;;;;;;5043333;28;20375;-78
2022/04/25 10:52:53;;;;;;;2.22;1.67;;;11.60;99.90;;;;;;5029887;28;20230;-79
2022/04/25 10:55:30;;;;;;;1.35;1.25;;;11.70;99.90;;;;;;5045827;28;20093;-78
2022/04/25 10:58:16;;;;;;;2.20;2.05;;;11.80;99.90;;;;;;5051036;28;20402;-79
2022/04/25 11:00:44;;;;;;;1.92;1.80;;;11.90;99.90;;;;;;5057644;28;20068;-79
2022/04/25 11:03:10;;;;;;;0.95;0.95;;;11.90;99.90;;;;;;5060972;28;20391;-79
2022/04/25 11:05:38;;;;;;;1.92;1.80;;;11.90;99.90;;;;;;5060061;28;20172;-79
2022/04/25 11:08:17;;;;;;;3.00;2.33;;;12.00;99.90;;;;;;5057418;28;20046;-79
2022/04/25 11:10:59;;;;;;;1.58;1.50;;;12.00;99.90;;;;;;5059943;28;20060;-79
2022/04/25 11:13:28;;;;;;;7.68;1.27;;;12.10;99.90;;;;;;5060253;28;20080;-79
2022/04/25 11:16:16;;;;;;;1.73;1.58;;;12.10;99.90;;;;;;5059290;28;20510;-78
2022/04/25 11:18:42;;;;;;;4.78;1.38;;;12.20;99.90;;;;;;5043243;28;20051;-78
2022/04/25 11:21:29;;;;;;;4.32;1.60;;;12.30;99.90;;;;;;5050547;28;20036;-79
2022/04/25 11:23:55;;;;;;;2.90;2.15;;;12.40;99.90;;;;;;5057192;28;20052;-80
2022/04/25 11:26:26;;;;;;;1.73;1.48;;;12.40;99.90;;;;;;5037586;28;20143;-79
2022/04/25 11:28:55;;;;;;;2.40;2.07;;;12.40;99.90;;;;;;5042239;28;20045;-79
2022/04/25 11:31:30;;;;;;;2.05;1.45;;;12.40;99.90;;;;;;5056899;28;20736;-79
2022/04/25 11:34:01;;;;;;;2.15;1.30;;;12.50;99.90;;;;;;5036791;28;20143;-79
2022/04/25 11:36:29;;;;;;;3.33;1.25;;;12.50;99.90;;;;;;5052594;28;20071;-79
2022/04/25 11:41:40;;;;;;;1.60;1.42;;;12.60;99.90;;;;;;5039716;28;20056;-82
2022/04/25 11:44:06;;;;;;;2.20;1.40;;;12.60;99.90;;;;;;5025861;28;20056;-80
2022/04/25 11:46:34;;;;;;;1.98;1.45;;;12.60;99.90;;;;;;5039855;28;20041;-80
2022/04/25 11:49:00;;;;;;;2.75;1.92;;;12.60;99.90;;;;;;5044302;28;20044;-80
2022/04/25 11:51:31;;;;;;;10.30;2.33;;;12.60;99.90;;;;;;5039421;28;20028;-79
2022/04/25 11:53:58;;;;;;;5.03;1.90;;;12.70;99.90;;;;;;5059837;28;20079;-80
2022/04/25 11:56:25;;;;;;;1.92;1.73;;;12.70;99.90;;;;;;5035657;28;20170;-80
2022/04/25 11:58:52;;;;;;;2.58;1.42;;;12.70;99.90;;;;;;5058572;28;20123;-80
2022/04/25 12:01:37;;;;;;;1.95;1.63;;;12.70;99.90;;;;;;5051458;28;20036;-79
2022/04/25 12:04:35;;;;;;;14.77;2.67;;;12.70;99.90;;;;;;5035924;28;20438;-78
2022/04/25 12:07:00;;;;;;;7.43;1.42;;;12.60;99.90;;;;;;5057295;28;20888;-76
2022/04/25 12:15:34;;;;;;;2.05;1.85;;;12.50;99.90;;;;;;5038620;28;20049;-83
2022/04/25 12:18:23;;;;;;;1.80;1.52;;;12.50;99.90;;;;;;5057340;28;20068;-82
2022/04/25 12:21:08;;;;;;;1.30;1.20;;;12.50;99.90;;;;;;5042223;28;20287;-83
2022/04/25 12:23:39;;;;;;;1.75;1.65;;;12.40;99.90;;;;;;5043477;28;20033;-87
2022/04/25 12:26:06;;;;;;;3.15;1.52;;;12.50;99.90;;;;;;5062452;28;20044;-84
2022/04/25 12:28:34;;;;;;;1.30;1.20;;;12.60;99.90;;;;;;5062083;28;20043;-83
2022/04/25 12:31:11;;;;;;;1.23;1.10;;;12.70;99.90;;;;;;5061917;28;20471;-82
2022/04/25 12:33:36;;;;;;;7.57;1.77;;;12.70;99.90;;;;;;5032346;28;20045;-83
2022/04/25 12:36:15;;;;;;;6.45;3.22;;;12.70;99.90;;;;;;5035394;28;20033;-83
2022/04/25 12:38:51;;;;;;;1.30;1.20;;;12.70;99.90;;;;;;5058363;28;20091;-83
2022/04/25 12:41:25;;;;;;;2.65;1.88;;;12.70;99.90;;;;;;5043615;28;20509;-85
2022/04/25 12:43:54;;;;;;;1.77;1.48;;;12.80;99.90;;;;;;5045209;28;20041;-83
2022/04/25 12:46:39;;;;;;;1.50;1.40;;;12.80;99.90;;;;;;5056340;28;20525;-82
2022/04/25 12:49:31;;;;;;;3.72;1.95;;;12.80;99.90;;;;;;5043528;28;20048;-83
2022/04/25 12:51:59;;;;;;;1.80;1.70;;;12.90;99.90;;;;;;5041416;28;20053;-88
2022/04/25 12:54:33;;;;;;;1.77;1.67;;;12.90;99.90;;;;;;5040988;28;20672;-91
2022/04/25 12:57:13;;;;;;;4.88;2.10;;;12.90;99.90;;;;;;5038699;28;20040;-84
2022/04/25 12:59:40;;;;;;;2.80;2.05;;;13.00;99.90;;;;;;5041823;28;20049;-81
2022/04/25 13:02:12;;;;;;;6.53;2.20;;;13.10;99.90;;;;;;5041484;28;20101;-83
2022/04/25 13:04:57;;;;;;;1.55;1.45;;;13.10;99.90;;;;;;5043969;28;20075;-86
2022/04/25 13:07:28;;;;;;;1.38;1.27;;;13.20;99.90;;;;;;5034308;28;20118;-94
2022/04/25 13:10:13;;;;;;;2.17;1.58;;;13.20;99.90;;;;;;5022468;28;20390;-89
2022/04/25 13:12:46;;;;;;;5.15;1.58;;;13.30;99.90;;;;;;5021779;28;20052;-85
2022/04/25 13:15:15;;;;;;;5.82;1.70;;;13.30;99.90;;;;;;5041763;28;20036;-86
2022/04/25 13:17:41;;;;;;;1.40;1.30;;;13.30;99.90;;;;;;5062319;28;20100;-86
2022/04/25 13:20:10;;;;;;;1.30;1.10;;;13.40;99.90;;;;;;5037052;28;20040;-83
2022/04/25 13:22:36;;;;;;;1.40;1.30;;;13.50;99.90;;;;;;5036840;28;20044;-83
2022/04/25 13:25:03;;;;;;;3.83;1.10;;;13.50;99.90;;;;;;5038329;28;20036;-86
2022/04/25 13:27:31;;;;;;;0.75;0.65;;;13.50;99.90;;;;;;5037192;28;20045;-90
2022/04/25 13:29:56;;;;;;;1.30;1.20;;;13.60;99.90;;;;;;5027505;28;20047;-83
2022/04/25 13:32:22;;;;;;;1.75;1.38;;;13.50;99.90;;;;;;5057552;28;20037;-84
2022/04/25 13:34:48;;;;;;;2.05;1.02;;;13.50;99.90;;;;;;5055644;28;20230;-84
2022/04/25 13:37:14;;;;;;;1.33;1.20;;;13.50;99.90;;;;;;5021571;28;20491;-83